sensor_id;sensor_type;location;lat;lon;timestamp;pressure;altitude;pressure_sealevel;temperature;humidity
55656;BME280;41530;52.382;5.270;2023-01-29T00:01:58;103194.91;;;13.97;49.01
55656;BME280;41530;52.382;5.270;2023-01-29T00:04:26;103189.69;;;13.95;48.94
55656;BME280;41530;52.382;5.270;2023-01-29T00:06:53;103193.19;;;13.96;48.77
55656;BME280;41530;52.382;5.270;2023-01-29T00:09:19;103190.53;;;13.96;49.05
55656;BME280;41530;52.382;5.270;2023-01-29T00:11:46;103182.66;;;13.94;49.00
55656;BME280;41530;52.382;5.270;2023-01-29T00:14:13;103187.97;;;13.94;49.09
55656;BME280;41530;52.382;5.270;2023-01-29T00:16:39;103191.53;;;13.93;48.81
55656;BME280;41530;52.382;5.270;2023-01-29T00:19:06;103190.59;;;13.94;48.90
55656;BME280;41530;52.382;5.270;2023-01-29T00:21:33;103194.19;;;13.93;48.93
55656;BME280;41530;52.382;5.270;2023-01-29T00:24:00;103188.03;;;13.93;48.85
55656;BME280;41530;52.382;5.270;2023-01-29T00:26:27;103178.38;;;13.91;48.73
55656;BME280;41530;52.382;5.270;2023-01-29T00:28:55;103179.28;;;13.90;48.83
55656;BME280;41530;52.382;5.270;2023-01-29T00:31:28;103172.28;;;13.89;48.89
55656;BME280;41530;52.382;5.270;2023-01-29T00:33:55;103167.00;;;13.89;48.85
55656;BME280;41530;52.382;5.270;2023-01-29T00:36:23;103176.72;;;13.89;48.85
55656;BME280;41530;52.382;5.270;2023-01-29T00:38:58;103171.44;;;13.89;48.64
55656;BME280;41530;52.382;5.270;2023-01-29T00:41:27;103177.66;;;13.88;48.70
55656;BME280;41530;52.382;5.270;2023-01-29T00:44:13;103172.34;;;13.88;48.76
55656;BME280;41530;52.382;5.270;2023-01-29T00:46:58;103159.25;;;13.85;48.80
55656;BME280;41530;52.382;5.270;2023-01-29T00:49:25;103159.19;;;13.86;48.74
55656;BME280;41530;52.382;5.270;2023-01-29T00:51:51;103153.97;;;13.85;48.82
55656;BME280;41530;52.382;5.270;2023-01-29T00:54:36;103150.50;;;13.84;48.76
55656;BME280;41530;52.382;5.270;2023-01-29T00:57:03;103153.19;;;13.83;48.70
55656;BME280;41530;52.382;5.270;2023-01-29T00:59:30;103150.56;;;13.83;48.62
55656;BME280;41530;52.382;5.270;2023-01-29T01:01:57;103147.06;;;13.82;48.55
55656;BME280;41530;52.382;5.270;2023-01-29T01:04:42;103153.28;;;13.81;48.68
55656;BME280;41530;52.382;5.270;2023-01-29T01:07:10;103146.25;;;13.80;48.55
55656;BME280;41530;52.382;5.270;2023-01-29T01:09:40;103145.41;;;13.80;48.38
55656;BME280;41530;52.382;5.270;2023-01-29T01:12:25;103157.78;;;13.79;48.56
55656;BME280;41530;52.382;5.270;2023-01-29T01:14:52;103163.13;;;13.78;48.48
55656;BME280;41530;52.382;5.270;2023-01-29T01:17:18;103170.22;;;13.77;48.57
55656;BME280;41530;52.382;5.270;2023-01-29T01:19:45;103159.75;;;13.74;48.40
55656;BME280;41530;52.382;5.270;2023-01-29T01:22:12;103165.91;;;13.75;48.38
55656;BME280;41530;52.382;5.270;2023-01-29T01:24:39;103166.78;;;13.75;48.47
55656;BME280;41530;52.382;5.270;2023-01-29T01:27:06;103164.19;;;13.74;48.43
55656;BME280;41530;52.382;5.270;2023-01-29T01:29:32;103166.84;;;13.74;48.36
55656;BME280;41530;52.382;5.270;2023-01-29T01:32:00;103159.81;;;13.73;48.44
55656;BME280;41530;52.382;5.270;2023-01-29T01:34:27;103155.41;;;13.73;48.31
55656;BME280;41530;52.382;5.270;2023-01-29T01:36:54;103155.47;;;13.72;48.27
55656;BME280;41530;52.382;5.270;2023-01-29T01:39:24;103154.63;;;13.71;48.22
55656;BME280;41530;52.382;5.270;2023-01-29T01:41:52;103154.63;;;13.71;48.16
55656;BME280;41530;52.382;5.270;2023-01-29T01:44:55;103159.06;;;13.71;48.06
55656;BME280;41530;52.382;5.270;2023-01-29T01:47:37;103166.16;;;13.70;47.84
55656;BME280;41530;52.382;5.270;2023-01-29T01:50:15;103162.72;;;13.68;48.10
55656;BME280;41530;52.382;5.270;2023-01-29T01:52:46;103161.84;;;13.68;48.24
55656;BME280;41530;52.382;5.270;2023-01-29T01:55:16;103158.34;;;13.67;48.25
55656;BME280;41530;52.382;5.270;2023-01-29T01:57:47;103160.97;;;13.67;48.28
55656;BME280;41530;52.382;5.270;2023-01-29T02:00:17;103165.41;;;13.67;48.37
55656;BME280;41530;52.382;5.270;2023-01-29T02:02:45;103166.34;;;13.66;48.16
55656;BME280;41530;52.382;5.270;2023-01-29T02:05:32;103168.19;;;13.64;48.22
55656;BME280;41530;52.382;5.270;2023-01-29T02:08:39;103162.97;;;13.62;47.87
55656;BME280;41530;52.382;5.270;2023-01-29T02:11:26;103160.31;;;13.62;48.27
55656;BME280;41530;52.382;5.270;2023-01-29T02:13:52;103160.31;;;13.62;48.44
55656;BME280;41530;52.382;5.270;2023-01-29T02:16:20;103162.09;;;13.62;48.27
55656;BME280;41530;52.382;5.270;2023-01-29T02:18:48;103167.41;;;13.62;48.31
55656;BME280;41530;52.382;5.270;2023-01-29T02:27:08;103179.13;;;13.56;47.69
55656;BME280;41530;52.382;5.270;2023-01-29T02:32:40;103185.28;;;13.57;47.54
55656;BME280;41530;52.382;5.270;2023-01-29T02:35:28;103175.75;;;13.52;47.87
55656;BME280;41530;52.382;5.270;2023-01-29T02:38:06;103175.75;;;13.52;47.64
55656;BME280;41530;52.382;5.270;2023-01-29T02:40:45;103179.34;;;13.51;47.59
55656;BME280;41530;52.382;5.270;2023-01-29T02:43:47;103172.31;;;13.50;47.71
55656;BME280;41530;52.382;5.270;2023-01-29T02:47:04;103166.38;;;13.45;47.71
55656;BME280;41530;52.382;5.270;2023-01-29T02:49:35;103162.09;;;13.43;47.69
55656;BME280;41530;52.382;5.270;2023-01-29T02:52:14;103166.16;;;13.50;47.94
55656;BME280;41530;52.382;5.270;2023-01-29T02:57:25;103153.00;;;13.48;47.96
55656;BME280;41530;52.382;5.270;2023-01-29T02:59:57;103153.16;;;13.45;48.13
55656;BME280;41530;52.382;5.270;2023-01-29T03:02:49;103156.59;;;13.47;47.79
55656;BME280;41530;52.382;5.270;2023-01-29T03:05:26;103143.59;;;13.43;48.06
55656;BME280;41530;52.382;5.270;2023-01-29T03:07:59;103145.31;;;13.44;47.89
55656;BME280;41530;52.382;5.270;2023-01-29T03:10:39;103145.16;;;13.47;48.02
55656;BME280;41530;52.382;5.270;2023-01-29T03:13:28;103147.84;;;13.45;47.80
55656;BME280;41530;52.382;5.270;2023-01-29T03:16:10;103139.84;;;13.47;47.83
55656;BME280;41530;52.382;5.270;2023-01-29T03:18:47;103128.66;;;13.42;47.90
55656;BME280;41530;52.382;5.270;2023-01-29T03:21:23;103123.31;;;13.43;47.72
55656;BME280;41530;52.382;5.270;2023-01-29T03:24:15;103124.06;;;13.45;48.22
55656;BME280;41530;52.382;5.270;2023-01-29T03:27:06;103111.94;;;13.41;47.94
55656;BME280;41530;52.382;5.270;2023-01-29T03:29:53;103111.00;;;13.42;48.18
55656;BME280;41530;52.382;5.270;2023-01-29T03:32:41;103103.13;;;13.41;48.01
55656;BME280;41530;52.382;5.270;2023-01-29T03:35:13;103104.00;;;13.41;48.08
55656;BME280;41530;52.382;5.270;2023-01-29T03:37:47;103097.13;;;13.37;48.10
55656;BME280;41530;52.382;5.270;2023-01-29T03:40:14;103103.06;;;13.42;48.21
55656;BME280;41530;52.382;5.270;2023-01-29T03:42:43;103103.94;;;13.43;48.14
55656;BME280;41530;52.382;5.270;2023-01-29T03:45:25;103099.75;;;13.37;47.96
55656;BME280;41530;52.382;5.270;2023-01-29T03:50:53;103093.63;;;13.37;48.10
55656;BME280;41530;52.382;5.270;2023-01-29T03:53:43;103102.28;;;13.40;48.11
55656;BME280;41530;52.382;5.270;2023-01-29T03:56:36;103094.41;;;13.39;47.96
55656;BME280;41530;52.382;5.270;2023-01-29T03:59:17;103084.03;;;13.34;47.83
55656;BME280;41530;52.382;5.270;2023-01-29T04:02:07;103082.97;;;13.38;47.96
55656;BME280;41530;52.382;5.270;2023-01-29T04:04:40;103088.53;;;13.32;48.22
55656;BME280;41530;52.382;5.270;2023-01-29T04:07:12;103083.91;;;13.37;48.19
55656;BME280;41530;52.382;5.270;2023-01-29T04:09:45;103081.56;;;13.31;48.15
55656;BME280;41530;52.382;5.270;2023-01-29T04:12:18;103079.75;;;13.32;47.86
55656;BME280;41530;52.382;5.270;2023-01-29T04:14:48;103084.19;;;13.31;47.92
55656;BME280;41530;52.382;5.270;2023-01-29T04:17:30;103075.41;;;13.31;47.89
55656;BME280;41530;52.382;5.270;2023-01-29T04:19:59;103084.03;;;13.34;48.01
55656;BME280;41530;52.382;5.270;2023-01-29T04:22:31;103084.03;;;13.34;48.00
55656;BME280;41530;52.382;5.270;2023-01-29T04:24:59;103080.59;;;13.32;47.76
55656;BME280;41530;52.382;5.270;2023-01-29T04:28:04;103083.34;;;13.31;47.52
55656;BME280;41530;52.382;5.270;2023-01-29T04:36:02;103070.25;;;13.28;47.67
55656;BME280;41530;52.382;5.270;2023-01-29T04:41:16;103065.09;;;13.25;47.17
55656;BME280;41530;52.382;5.270;2023-01-29T04:49:38;103040.66;;;13.19;47.36
55656;BME280;41530;52.382;5.270;2023-01-29T04:55:06;103039.66;;;13.22;47.60
55656;BME280;41530;52.382;5.270;2023-01-29T05:00:20;103048.50;;;13.21;47.59
55656;BME280;41530;52.382;5.270;2023-01-29T05:02:48;103039.72;;;13.20;47.94
55656;BME280;41530;52.382;5.270;2023-01-29T05:05:17;103038.00;;;13.19;47.51
55656;BME280;41530;52.382;5.270;2023-01-29T05:07:46;103042.38;;;13.20;47.89
55656;BME280;41530;52.382;5.270;2023-01-29T05:10:16;103042.53;;;13.17;47.76
55656;BME280;41530;52.382;5.270;2023-01-29T05:12:51;103049.44;;;13.20;47.66
55656;BME280;41530;52.382;5.270;2023-01-29T05:15:25;103050.38;;;13.19;47.65
55656;BME280;41530;52.382;5.270;2023-01-29T05:17:53;103059.16;;;13.19;47.87
55656;BME280;41530;52.382;5.270;2023-01-29T05:20:30;103049.50;;;13.18;47.67
55656;BME280;41530;52.382;5.270;2023-01-29T05:22:58;103038.34;;;13.12;47.53
55656;BME280;41530;52.382;5.270;2023-01-29T05:25:28;103037.41;;;13.13;47.88
55656;BME280;41530;52.382;5.270;2023-01-29T05:27:56;103045.09;;;13.19;47.97
55656;BME280;41530;52.382;5.270;2023-01-29T05:30:46;103042.66;;;13.14;47.82
55656;BME280;41530;52.382;5.270;2023-01-29T05:33:18;103053.09;;;13.17;47.74
55656;BME280;41530;52.382;5.270;2023-01-29T05:35:46;103046.28;;;13.12;47.88
55656;BME280;41530;52.382;5.270;2023-01-29T05:38:14;103046.19;;;13.13;47.77
55656;BME280;41530;52.382;5.270;2023-01-29T05:40:41;103044.47;;;13.12;47.96
55656;BME280;41530;52.382;5.270;2023-01-29T05:43:23;103046.97;;;13.17;47.47
55656;BME280;41530;52.382;5.270;2023-01-29T05:45:53;103028.63;;;13.12;47.45
55656;BME280;41530;52.382;5.270;2023-01-29T05:48:21;103030.41;;;13.12;47.53
55656;BME280;41530;52.382;5.270;2023-01-29T05:50:48;103031.19;;;13.14;47.61
55656;BME280;41530;52.382;5.270;2023-01-29T05:53:15;103020.53;;;13.17;47.71
55656;BME280;41530;52.382;5.270;2023-01-29T05:55:46;103015.06;;;13.20;47.40
55656;BME280;41530;52.382;5.270;2023-01-29T05:58:13;103007.22;;;13.18;47.59
55656;BME280;41530;52.382;5.270;2023-01-29T06:00:41;102996.50;;;13.22;47.75
55656;BME280;41530;52.382;5.270;2023-01-29T06:03:07;102994.66;;;13.24;47.60
55656;BME280;41530;52.382;5.270;2023-01-29T06:05:37;103000.72;;;13.26;47.48
55656;BME280;41530;52.382;5.270;2023-01-29T06:08:05;102996.31;;;13.26;47.56
55656;BME280;41530;52.382;5.270;2023-01-29T06:10:32;102996.38;;;13.25;47.42
55656;BME280;41530;52.382;5.270;2023-01-29T06:12:59;102987.72;;;13.21;47.47
55656;BME280;41530;52.382;5.270;2023-01-29T06:15:27;102998.03;;;13.27;47.34
55656;BME280;41530;52.382;5.270;2023-01-29T06:17:54;102996.25;;;13.28;47.34
55656;BME280;41530;52.382;5.270;2023-01-29T06:20:22;102977.16;;;13.21;47.37
55656;BME280;41530;52.382;5.270;2023-01-29T06:22:50;102987.59;;;13.24;47.34
55656;BME280;41530;52.382;5.270;2023-01-29T06:25:17;102980.50;;;13.25;47.30
55656;BME280;41530;52.382;5.270;2023-01-29T06:27:44;102981.31;;;13.27;47.29
55656;BME280;41530;52.382;5.270;2023-01-29T06:30:11;102989.22;;;13.27;47.29
55656;BME280;41530;52.382;5.270;2023-01-29T06:32:39;102981.22;;;13.28;47.29
55656;BME280;41530;52.382;5.270;2023-01-29T06:35:07;102978.78;;;13.24;47.20
55656;BME280;41530;52.382;5.270;2023-01-29T06:37:35;102976.94;;;13.26;47.24
55656;BME280;41530;52.382;5.270;2023-01-29T06:40:02;102980.50;;;13.25;47.32
55656;BME280;41530;52.382;5.270;2023-01-29T06:42:29;102986.78;;;13.22;47.19
55656;BME280;41530;52.382;5.270;2023-01-29T06:44:56;102972.16;;;13.15;47.10
55656;BME280;41530;52.382;5.270;2023-01-29T06:47:23;102980.50;;;13.25;47.23
55656;BME280;41530;52.382;5.270;2023-01-29T06:49:50;102956.16;;;13.18;47.14
55656;BME280;41530;52.382;5.270;2023-01-29T06:52:17;102970.00;;;13.23;47.13
55656;BME280;41530;52.382;5.270;2023-01-29T06:54:44;102961.22;;;13.23;47.12
55656;BME280;41530;52.382;5.270;2023-01-29T06:57:11;102961.34;;;13.19;47.18
55656;BME280;41530;52.382;5.270;2023-01-29T06:59:38;102970.00;;;13.23;47.06
55656;BME280;41530;52.382;5.270;2023-01-29T07:02:05;102967.50;;;13.20;47.20
55656;BME280;41530;52.382;5.270;2023-01-29T07:04:33;102972.72;;;13.22;47.07
55656;BME280;41530;52.382;5.270;2023-01-29T07:07:00;102972.72;;;13.22;47.25
55656;BME280;41530;52.382;5.270;2023-01-29T07:09:27;102966.56;;;13.21;47.18
55656;BME280;41530;52.382;5.270;2023-01-29T07:11:54;102968.44;;;13.19;46.97
55656;BME280;41530;52.382;5.270;2023-01-29T07:14:21;102960.66;;;13.16;47.01
55656;BME280;41530;52.382;5.270;2023-01-29T07:16:49;102972.16;;;13.15;47.07
55656;BME280;41530;52.382;5.270;2023-01-29T07:19:15;102984.28;;;13.19;46.97
55656;BME280;41530;52.382;5.270;2023-01-29T07:21:42;102976.63;;;13.13;47.09
55656;BME280;41530;52.382;5.270;2023-01-29T07:24:09;102986.94;;;13.19;47.04
55656;BME280;41530;52.382;5.270;2023-01-29T07:26:36;102978.25;;;13.17;47.13
55656;BME280;41530;52.382;5.270;2023-01-29T07:29:03;102977.38;;;13.16;47.09
55656;BME280;41530;52.382;5.270;2023-01-29T07:31:30;102976.53;;;13.16;46.78
55656;BME280;41530;52.382;5.270;2023-01-29T07:33:57;102982.59;;;13.18;47.02
55656;BME280;41530;52.382;5.270;2023-01-29T07:36:24;102978.25;;;13.17;46.91
55656;BME280;41530;52.382;5.270;2023-01-29T07:38:50;102950.28;;;13.11;46.81
55656;BME280;41530;52.382;5.270;2023-01-29T07:41:17;102956.31;;;13.15;46.85
55656;BME280;41530;52.382;5.270;2023-01-29T07:43:44;102951.91;;;13.14;46.69
55656;BME280;41530;52.382;5.270;2023-01-29T07:46:11;102947.56;;;13.13;46.62
55656;BME280;41530;52.382;5.270;2023-01-29T07:48:38;102951.13;;;13.12;46.78
55656;BME280;41530;52.382;5.270;2023-01-29T07:51:05;102950.28;;;13.11;46.78
55656;BME280;41530;52.382;5.270;2023-01-29T07:53:33;102951.19;;;13.10;46.71
55656;BME280;41530;52.382;5.270;2023-01-29T07:55:59;102939.16;;;13.05;46.96
55656;BME280;41530;52.382;5.270;2023-01-29T07:58:26;102938.84;;;13.11;47.01
55656;BME280;41530;52.382;5.270;2023-01-29T08:00:53;102937.97;;;13.10;47.30
55656;BME280;41530;52.382;5.270;2023-01-29T08:03:19;102942.16;;;13.16;47.15
55656;BME280;41530;52.382;5.270;2023-01-29T08:05:46;102940.31;;;13.18;47.43
55656;BME280;41530;52.382;5.270;2023-01-29T08:08:13;102936.81;;;13.17;47.27
55656;BME280;41530;52.382;5.270;2023-01-29T08:10:41;102941.94;;;13.20;47.06
55656;BME280;41530;52.382;5.270;2023-01-29T08:13:08;102944.56;;;13.20;47.20
55656;BME280;41530;52.382;5.270;2023-01-29T08:15:35;102939.34;;;13.19;47.14
55656;BME280;41530;52.382;5.270;2023-01-29T08:18:04;102940.06;;;13.23;47.08
55656;BME280;41530;52.382;5.270;2023-01-29T08:20:31;102931.34;;;13.20;47.31
55656;BME280;41530;52.382;5.270;2023-01-29T08:23:03;102916.59;;;13.16;47.39
55656;BME280;41530;52.382;5.270;2023-01-29T08:25:30;102933.00;;;13.23;47.36
55656;BME280;41530;52.382;5.270;2023-01-29T08:27:59;102920.66;;;13.24;47.48
55656;BME280;41530;52.382;5.270;2023-01-29T08:30:29;102913.88;;;13.18;46.95
55656;BME280;41530;52.382;5.270;2023-01-29T08:32:56;102926.78;;;13.24;47.32
55656;BME280;41530;52.382;5.270;2023-01-29T08:35:23;102925.00;;;13.25;47.50
55656;BME280;41530;52.382;5.270;2023-01-29T08:38:00;102910.94;;;13.24;47.56
55656;BME280;41530;52.382;5.270;2023-01-29T08:40:28;102906.50;;;13.25;47.36
55656;BME280;41530;52.382;5.270;2023-01-29T08:42:57;102915.09;;;13.30;47.90
55656;BME280;41530;52.382;5.270;2023-01-29T08:45:28;102916.00;;;13.29;47.85
55656;BME280;41530;52.382;5.270;2023-01-29T08:47:55;102918.47;;;13.32;48.30
55656;BME280;41530;52.382;5.270;2023-01-29T08:50:22;102904.44;;;13.31;48.09
55656;BME280;41530;52.382;5.270;2023-01-29T08:52:49;102905.13;;;13.35;48.40
55656;BME280;41530;52.382;5.270;2023-01-29T08:55:16;102904.06;;;13.39;48.41
55656;BME280;41530;52.382;5.270;2023-01-29T08:57:43;102897.97;;;13.37;47.69
55656;BME280;41530;52.382;5.270;2023-01-29T09:00:10;102903.84;;;13.43;48.17
55656;BME280;41530;52.382;5.270;2023-01-29T09:02:37;102901.19;;;13.43;48.43
55656;BME280;41530;52.382;5.270;2023-01-29T09:05:04;102902.91;;;13.44;48.45
55656;BME280;41530;52.382;5.270;2023-01-29T09:07:31;102891.47;;;13.44;47.84
55656;BME280;41530;52.382;5.270;2023-01-29T09:09:58;102891.38;;;13.45;48.39
55656;BME280;41530;52.382;5.270;2023-01-29T09:12:25;102895.59;;;13.49;48.65
55656;BME280;41530;52.382;5.270;2023-01-29T09:14:52;102897.31;;;13.50;48.26
55656;BME280;41530;52.382;5.270;2023-01-29T09:17:19;102905.16;;;13.52;48.27
55656;BME280;41530;52.382;5.270;2023-01-29T09:19:46;102894.72;;;13.49;48.29
55656;BME280;41530;52.382;5.270;2023-01-29T09:22:12;102906.81;;;13.54;48.58
55656;BME280;41530;52.382;5.270;2023-01-29T09:24:39;102894.59;;;13.52;48.60
55656;BME280;41530;52.382;5.270;2023-01-29T09:27:06;102888.44;;;13.51;47.71
55656;BME280;41530;52.382;5.270;2023-01-29T09:29:33;102887.72;;;13.48;47.30
55656;BME280;41530;52.382;5.270;2023-01-29T09:32:03;102905.25;;;13.50;46.92
55656;BME280;41530;52.382;5.270;2023-01-29T09:34:32;102906.25;;;13.48;46.90
55656;BME280;41530;52.382;5.270;2023-01-29T09:36:59;102901.09;;;13.45;47.14
55656;BME280;41530;52.382;5.270;2023-01-29T09:39:26;102902.06;;;13.44;46.99
55656;BME280;41530;52.382;5.270;2023-01-29T09:47:16;102903.97;;;13.40;47.08
55656;BME280;41530;52.382;5.270;2023-01-29T09:49:58;102890.97;;;13.36;46.56
55656;BME280;41530;52.382;5.270;2023-01-29T09:52:52;102889.13;;;13.38;46.63
55656;BME280;41530;52.382;5.270;2023-01-29T09:55:24;102886.63;;;13.35;46.98
55656;BME280;41530;52.382;5.270;2023-01-29T10:00:22;102877.03;;;13.32;46.42
55656;BME280;41530;52.382;5.270;2023-01-29T10:14:28;102867.31;;;13.15;45.74
55656;BME280;41530;52.382;5.270;2023-01-29T10:25:18;102847.41;;;13.07;45.97
55656;BME280;41530;52.382;5.270;2023-01-29T10:27:51;102864.00;;;13.10;46.02
55656;BME280;41530;52.382;5.270;2023-01-29T10:30:36;102857.91;;;13.08;45.79
55656;BME280;41530;52.382;5.270;2023-01-29T10:33:11;102839.50;;;13.07;45.69
55656;BME280;41530;52.382;5.270;2023-01-29T10:35:42;102836.91;;;13.05;45.98
55656;BME280;41530;52.382;5.270;2023-01-29T10:41:11;102848.28;;;13.07;45.96
55656;BME280;41530;52.382;5.270;2023-01-29T10:49:14;102834.53;;;13.01;45.64
55656;BME280;41530;52.382;5.270;2023-01-29T10:55:07;102833.81;;;12.97;45.45
55656;BME280;41530;52.382;5.270;2023-01-29T11:00:27;102834.72;;;12.96;45.62
55656;BME280;41530;52.382;5.270;2023-01-29T11:02:55;102810.41;;;12.90;45.73
55656;BME280;41530;52.382;5.270;2023-01-29T11:05:32;102814.03;;;12.87;45.44
55656;BME280;41530;52.382;5.270;2023-01-29T11:08:12;102808.53;;;12.92;45.63
55656;BME280;41530;52.382;5.270;2023-01-29T11:10:48;102816.63;;;12.89;45.95
55656;BME280;41530;52.382;5.270;2023-01-29T11:13:31;102814.75;;;12.91;45.74
55656;BME280;41530;52.382;5.270;2023-01-29T11:16:03;102800.78;;;12.89;46.08
55656;BME280;41530;52.382;5.270;2023-01-29T11:18:49;102792.06;;;12.87;45.63
55656;BME280;41530;52.382;5.270;2023-01-29T11:21:18;102785.19;;;12.82;46.02
55656;BME280;41530;52.382;5.270;2023-01-29T11:23:44;102798.19;;;12.87;46.24
55656;BME280;41530;52.382;5.270;2023-01-29T11:26:16;102802.63;;;12.87;46.28
55656;BME280;41530;52.382;5.270;2023-01-29T11:28:46;102785.19;;;12.82;46.54
55656;BME280;41530;52.382;5.270;2023-01-29T11:31:25;102784.84;;;12.90;46.33
55656;BME280;41530;52.382;5.270;2023-01-29T11:34:01;102788.09;;;12.95;46.35
55656;BME280;41530;52.382;5.270;2023-01-29T11:36:30;102781.81;;;12.98;46.43
55656;BME280;41530;52.382;5.270;2023-01-29T11:39:22;102774.69;;;13.00;46.94
55656;BME280;41530;52.382;5.270;2023-01-29T11:42:01;102766.34;;;13.07;46.85
55656;BME280;41530;52.382;5.270;2023-01-29T11:44:34;102757.50;;;13.08;47.02
55656;BME280;41530;52.382;5.270;2023-01-29T11:47:09;102764.06;;;13.18;47.30
55656;BME280;41530;52.382;5.270;2023-01-29T11:49:39;102761.53;;;13.17;47.73
55656;BME280;41530;52.382;5.270;2023-01-29T11:52:10;102753.13;;;13.26;47.80
55656;BME280;41530;52.382;5.270;2023-01-29T11:54:48;102745.19;;;13.26;47.42
55656;BME280;41530;52.382;5.270;2023-01-29T11:57:37;102742.34;;;13.31;47.59
55656;BME280;41530;52.382;5.270;2023-01-29T12:00:20;102738.91;;;13.29;47.44
55656;BME280;41530;52.382;5.270;2023-01-29T12:03:03;102737.78;;;13.33;47.81
55656;BME280;41530;52.382;5.270;2023-01-29T12:05:32;102732.50;;;13.33;47.85
55656;BME280;41530;52.382;5.270;2023-01-29T12:08:00;102730.72;;;13.33;48.26
55656;BME280;41530;52.382;5.270;2023-01-29T12:10:30;102729.41;;;13.42;47.90
55656;BME280;41530;52.382;5.270;2023-01-29T12:15:41;102730.19;;;13.44;48.27
55656;BME280;41530;52.382;5.270;2023-01-29T12:18:31;102726.59;;;13.45;48.21
55656;BME280;41530;52.382;5.270;2023-01-29T12:21:03;102723.88;;;13.46;48.26
55656;BME280;41530;52.382;5.270;2023-01-29T12:23:35;102714.22;;;13.45;48.17
55656;BME280;41530;52.382;5.270;2023-01-29T12:26:14;102712.44;;;13.46;48.45
55656;BME280;41530;52.382;5.270;2023-01-29T12:34:36;102677.97;;;13.47;49.27
55656;BME280;41530;52.382;5.270;2023-01-29T12:37:18;102670.91;;;13.48;48.85
55656;BME280;41530;52.382;5.270;2023-01-29T12:39:48;102660.34;;;13.48;48.67
55656;BME280;41530;52.382;5.270;2023-01-29T12:42:18;102659.66;;;13.44;48.85
55656;BME280;41530;52.382;5.270;2023-01-29T12:44:54;102643.63;;;13.47;49.22
55656;BME280;41530;52.382;5.270;2023-01-29T12:47:29;102637.47;;;13.47;48.65
55656;BME280;41530;52.382;5.270;2023-01-29T12:50:02;102618.97;;;13.47;49.03
55656;BME280;41530;52.382;5.270;2023-01-29T12:52:46;102612.75;;;13.48;49.28
55656;BME280;41530;52.382;5.270;2023-01-29T12:57:59;102606.13;;;13.57;48.97
55656;BME280;41530;52.382;5.270;2023-01-29T13:00:31;102585.13;;;13.53;49.28
55656;BME280;41530;52.382;5.270;2023-01-29T13:03:26;102581.03;;;13.64;49.67
55656;BME280;41530;52.382;5.270;2023-01-29T13:05:59;102579.16;;;13.66;49.62
55656;BME280;41530;52.382;5.270;2023-01-29T13:08:54;102566.63;;;13.69;49.46
55656;BME280;41530;52.382;5.270;2023-01-29T13:14:00;102553.06;;;13.75;49.89
55656;BME280;41530;52.382;5.270;2023-01-29T13:16:32;102540.75;;;13.74;50.64
55656;BME280;41530;52.382;5.270;2023-01-29T13:19:05;102545.44;;;13.85;50.26
55656;BME280;41530;52.382;5.270;2023-01-29T13:21:38;102549.56;;;13.90;50.49
55656;BME280;41530;52.382;5.270;2023-01-29T13:24:21;102540.59;;;13.93;50.79
55656;BME280;41530;52.382;5.270;2023-01-29T13:26:49;102536.16;;;13.94;50.66
55656;BME280;41530;52.382;5.270;2023-01-29T13:29:24;102534.69;;;14.04;51.07
55656;BME280;41530;52.382;5.270;2023-01-29T13:31:54;102520.50;;;14.05;51.18
55656;BME280;41530;52.382;5.270;2023-01-29T13:34:26;102524.78;;;14.07;51.28
55656;BME280;41530;52.382;5.270;2023-01-29T13:36:56;102515.81;;;14.10;51.34
55656;BME280;41530;52.382;5.270;2023-01-29T13:39:32;102524.41;;;14.13;51.67
55656;BME280;41530;52.382;5.270;2023-01-29T13:42:02;102519.53;;;14.21;51.86
55656;BME280;41530;52.382;5.270;2023-01-29T13:44:40;102524.47;;;14.27;51.81
55656;BME280;41530;52.382;5.270;2023-01-29T13:47:09;102526.00;;;14.32;51.91
55656;BME280;41530;52.382;5.270;2023-01-29T13:49:39;102507.56;;;14.30;52.23
55656;BME280;41530;52.382;5.270;2023-01-29T13:52:40;102519.59;;;14.36;52.25
55656;BME280;41530;52.382;5.270;2023-01-29T14:10:29;102497.66;;;14.64;52.80
55656;BME280;41530;52.382;5.270;2023-01-29T14:15:32;102483.25;;;14.68;52.97
55656;BME280;41530;52.382;5.270;2023-01-29T14:18:02;102496.81;;;14.77;53.01
55656;BME280;41530;52.382;5.270;2023-01-29T14:23:32;102485.63;;;14.86;53.49
55656;BME280;41530;52.382;5.270;2023-01-29T14:29:06;102467.00;;;14.88;53.18
55656;BME280;41530;52.382;5.270;2023-01-29T14:34:46;102468.31;;;14.95;53.05
55656;BME280;41530;52.382;5.270;2023-01-29T14:39:43;102469.34;;;15.07;53.38
55656;BME280;41530;52.382;5.270;2023-01-29T14:48:01;102437.16;;;15.13;53.47
55656;BME280;41530;52.382;5.270;2023-01-29T14:53:17;102445.94;;;15.27;53.60
55656;BME280;41530;52.382;5.270;2023-01-29T14:56:09;102448.25;;;15.32;53.75
55656;BME280;41530;52.382;5.270;2023-01-29T14:58:42;102439.69;;;15.28;50.54
55656;BME280;41530;52.382;5.270;2023-01-29T15:01:23;102439.53;;;15.17;48.90
55656;BME280;41530;52.382;5.270;2023-01-29T15:03:54;102435.63;;;15.09;48.82
55656;BME280;41530;52.382;5.270;2023-01-29T15:06:42;102434.69;;;14.95;48.68
55656;BME280;41530;52.382;5.270;2023-01-29T15:09:28;102428.94;;;14.89;48.78
55656;BME280;41530;52.382;5.270;2023-01-29T15:20:37;102423.00;;;14.71;49.11
55656;BME280;41530;52.382;5.270;2023-01-29T15:23:23;102417.88;;;14.68;48.92
55656;BME280;41530;52.382;5.270;2023-01-29T15:25:53;102406.06;;;14.59;49.15
55656;BME280;41530;52.382;5.270;2023-01-29T15:28:22;102403.59;;;14.56;49.19
55656;BME280;41530;52.382;5.270;2023-01-29T15:30:54;102409.47;;;14.61;49.12
55656;BME280;41530;52.382;5.270;2023-01-29T15:33:21;102401.88;;;14.55;49.46
55656;BME280;41530;52.382;5.270;2023-01-29T15:35:54;102410.59;;;14.57;49.22